Terminal Aerodrome Forecast
Issued by NWS Cleveland, OH

Home | Current Version | Previous Version | Text Only | Print | Product List | Glossary On
Versions: 1 2 3 4 5 6 7 8 9 10 11 12 13 14 15 16 17 18 19 20 21 22 23 24 25
000
FTUS41 KCLE 201123
TAFCLE
TAF
KCLE 201123Z 2012/2118 20015G22KT P6SM VCSH BKN100
     FM201500 20018G28KT P6SM VCSH BKN050
     FM210000 19014KT P6SM SCT060 BKN200
     FM211100 21012KT 6SM SHRA SCT040 OVC080
     FM211400 29012KT 3SM -RA BR BKN008 OVC020=

USA.gov is the U.S. government's official web portal to all federal, state and local government web resources and services.